sensor_id;sensor_type;location;lat;lon;timestamp;P1;durP1;ratioP1;P2;durP2;ratioP2
46613;SDS011;32338;50.430;6.806;2022-08-01T00:01:16;0.63;;;0.60;;
46613;SDS011;32338;50.430;6.806;2022-08-01T00:03:43;0.40;;;0.40;;
46613;SDS011;32338;50.430;6.806;2022-08-01T00:06:09;0.90;;;0.70;;
46613;SDS011;32338;50.430;6.806;2022-08-01T00:08:36;1.50;;;0.57;;
46613;SDS011;32338;50.430;6.806;2022-08-01T00:11:03;0.50;;;0.50;;
46613;SDS011;32338;50.430;6.806;2022-08-01T00:13:31;0.55;;;0.50;;
46613;SDS011;32338;50.430;6.806;2022-08-01T00:15:57;1.48;;;0.40;;
46613;SDS011;32338;50.430;6.806;2022-08-01T00:18:24;0.80;;;0.50;;
46613;SDS011;32338;50.430;6.806;2022-08-01T00:20:50;0.47;;;0.45;;
46613;SDS011;32338;50.430;6.806;2022-08-01T00:23:17;1.85;;;0.50;;
46613;SDS011;32338;50.430;6.806;2022-08-01T00:25:44;0.73;;;0.55;;
46613;SDS011;32338;50.430;6.806;2022-08-01T00:28:10;1.52;;;0.50;;
46613;SDS011;32338;50.430;6.806;2022-08-01T00:30:39;0.90;;;0.60;;
46613;SDS011;32338;50.430;6.806;2022-08-01T00:33:06;1.88;;;0.60;;
46613;SDS011;32338;50.430;6.806;2022-08-01T00:35:33;0.60;;;0.52;;
46613;SDS011;32338;50.430;6.806;2022-08-01T00:37:59;0.82;;;0.50;;
46613;SDS011;32338;50.430;6.806;2022-08-01T00:40:26;0.55;;;0.50;;
46613;SDS011;32338;50.430;6.806;2022-08-01T00:42:53;0.85;;;0.50;;
46613;SDS011;32338;50.430;6.806;2022-08-01T00:45:19;0.85;;;0.47;;
46613;SDS011;32338;50.430;6.806;2022-08-01T00:47:47;1.02;;;0.63;;
46613;SDS011;32338;50.430;6.806;2022-08-01T00:50:14;1.15;;;0.50;;
46613;SDS011;32338;50.430;6.806;2022-08-01T00:52:41;1.30;;;0.65;;
46613;SDS011;32338;50.430;6.806;2022-08-01T00:55:09;0.50;;;0.50;;
46613;SDS011;32338;50.430;6.806;2022-08-01T00:57:38;0.85;;;0.80;;
46613;SDS011;32338;50.430;6.806;2022-08-01T01:00:06;1.10;;;0.60;;
46613;SDS011;32338;50.430;6.806;2022-08-01T01:02:33;0.70;;;0.70;;
46613;SDS011;32338;50.430;6.806;2022-08-01T01:05:02;1.15;;;0.80;;
46613;SDS011;32338;50.430;6.806;2022-08-01T01:07:32;0.60;;;0.52;;
46613;SDS011;32338;50.430;6.806;2022-08-01T01:10:09;1.00;;;0.52;;
46613;SDS011;32338;50.430;6.806;2022-08-01T01:12:42;0.70;;;0.57;;
46613;SDS011;32338;50.430;6.806;2022-08-01T01:15:14;1.08;;;0.77;;
46613;SDS011;32338;50.430;6.806;2022-08-01T01:17:45;0.98;;;0.70;;
46613;SDS011;32338;50.430;6.806;2022-08-01T01:20:16;1.83;;;0.80;;
46613;SDS011;32338;50.430;6.806;2022-08-01T01:22:47;1.13;;;0.70;;
46613;SDS011;32338;50.430;6.806;2022-08-01T01:25:39;0.80;;;0.50;;
46613;SDS011;32338;50.430;6.806;2022-08-01T01:28:15;2.42;;;0.82;;
46613;SDS011;32338;50.430;6.806;2022-08-01T01:30:49;1.63;;;0.80;;
46613;SDS011;32338;50.430;6.806;2022-08-01T01:33:19;0.82;;;0.75;;
46613;SDS011;32338;50.430;6.806;2022-08-01T01:35:49;1.75;;;0.75;;
46613;SDS011;32338;50.430;6.806;2022-08-01T01:38:21;0.98;;;0.80;;
46613;SDS011;32338;50.430;6.806;2022-08-01T01:40:50;0.73;;;0.60;;
46613;SDS011;32338;50.430;6.806;2022-08-01T01:43:19;0.80;;;0.73;;
46613;SDS011;32338;50.430;6.806;2022-08-01T01:45:49;0.95;;;0.70;;
46613;SDS011;32338;50.430;6.806;2022-08-01T01:48:18;0.60;;;0.60;;
46613;SDS011;32338;50.430;6.806;2022-08-01T01:50:47;2.22;;;0.75;;
46613;SDS011;32338;50.430;6.806;2022-08-01T01:53:15;1.15;;;0.90;;
46613;SDS011;32338;50.430;6.806;2022-08-01T01:55:46;0.70;;;0.65;;
46613;SDS011;32338;50.430;6.806;2022-08-01T01:58:16;2.55;;;0.90;;
46613;SDS011;32338;50.430;6.806;2022-08-01T02:00:44;4.20;;;1.10;;
46613;SDS011;32338;50.430;6.806;2022-08-01T02:03:14;0.80;;;0.80;;
46613;SDS011;32338;50.430;6.806;2022-08-01T02:05:44;1.67;;;0.80;;
46613;SDS011;32338;50.430;6.806;2022-08-01T02:08:12;3.80;;;1.08;;
46613;SDS011;32338;50.430;6.806;2022-08-01T02:10:41;1.58;;;1.15;;
46613;SDS011;32338;50.430;6.806;2022-08-01T02:13:29;1.20;;;1.10;;
46613;SDS011;32338;50.430;6.806;2022-08-01T02:15:57;1.73;;;1.00;;
46613;SDS011;32338;50.430;6.806;2022-08-01T02:18:25;1.15;;;1.08;;
46613;SDS011;32338;50.430;6.806;2022-08-01T02:20:53;1.88;;;1.10;;
46613;SDS011;32338;50.430;6.806;2022-08-01T02:23:21;2.50;;;1.10;;
46613;SDS011;32338;50.430;6.806;2022-08-01T02:25:52;1.73;;;1.10;;
46613;SDS011;32338;50.430;6.806;2022-08-01T02:28:21;1.65;;;1.20;;
46613;SDS011;32338;50.430;6.806;2022-08-01T02:30:53;1.90;;;1.30;;
46613;SDS011;32338;50.430;6.806;2022-08-01T02:33:27;3.28;;;1.13;;
46613;SDS011;32338;50.430;6.806;2022-08-01T02:35:59;1.55;;;1.42;;
46613;SDS011;32338;50.430;6.806;2022-08-01T02:38:29;2.65;;;1.33;;
46613;SDS011;32338;50.430;6.806;2022-08-01T02:40:59;3.28;;;1.25;;
46613;SDS011;32338;50.430;6.806;2022-08-01T02:43:33;1.95;;;1.10;;
46613;SDS011;32338;50.430;6.806;2022-08-01T02:46:02;2.50;;;1.25;;
46613;SDS011;32338;50.430;6.806;2022-08-01T02:48:34;3.67;;;1.45;;
46613;SDS011;32338;50.430;6.806;2022-08-01T02:51:03;1.42;;;1.10;;
46613;SDS011;32338;50.430;6.806;2022-08-01T02:53:32;1.92;;;1.38;;
46613;SDS011;32338;50.430;6.806;2022-08-01T02:56:03;2.80;;;1.25;;
46613;SDS011;32338;50.430;6.806;2022-08-01T02:58:31;3.28;;;1.58;;
46613;SDS011;32338;50.430;6.806;2022-08-01T03:01:01;1.33;;;1.23;;
46613;SDS011;32338;50.430;6.806;2022-08-01T03:03:29;1.75;;;1.42;;
46613;SDS011;32338;50.430;6.806;2022-08-01T03:05:58;3.25;;;1.40;;
46613;SDS011;32338;50.430;6.806;2022-08-01T03:08:26;1.63;;;1.52;;
46613;SDS011;32338;50.430;6.806;2022-08-01T03:10:55;1.40;;;1.30;;
46613;SDS011;32338;50.430;6.806;2022-08-01T03:13:25;2.45;;;1.45;;
46613;SDS011;32338;50.430;6.806;2022-08-01T03:15:53;2.35;;;1.60;;
46613;SDS011;32338;50.430;6.806;2022-08-01T03:18:21;4.38;;;1.40;;
46613;SDS011;32338;50.430;6.806;2022-08-01T03:20:52;4.18;;;1.52;;
46613;SDS011;32338;50.430;6.806;2022-08-01T03:23:22;2.17;;;1.45;;
46613;SDS011;32338;50.430;6.806;2022-08-01T03:25:50;3.58;;;1.80;;
46613;SDS011;32338;50.430;6.806;2022-08-01T03:28:18;1.92;;;1.73;;
46613;SDS011;32338;50.430;6.806;2022-08-01T03:30:48;1.58;;;1.48;;
46613;SDS011;32338;50.430;6.806;2022-08-01T03:33:15;1.42;;;1.33;;
46613;SDS011;32338;50.430;6.806;2022-08-01T03:35:45;1.58;;;1.48;;
46613;SDS011;32338;50.430;6.806;2022-08-01T03:38:14;2.30;;;1.70;;
46613;SDS011;32338;50.430;6.806;2022-08-01T03:40:47;4.03;;;1.50;;
46613;SDS011;32338;50.430;6.806;2022-08-01T03:43:17;2.17;;;1.90;;
46613;SDS011;32338;50.430;6.806;2022-08-01T03:45:45;1.73;;;1.63;;
46613;SDS011;32338;50.430;6.806;2022-08-01T03:48:16;2.08;;;1.58;;
46613;SDS011;32338;50.430;6.806;2022-08-01T03:50:45;2.20;;;1.55;;
46613;SDS011;32338;50.430;6.806;2022-08-01T03:53:14;1.55;;;1.40;;
46613;SDS011;32338;50.430;6.806;2022-08-01T03:55:48;3.20;;;1.67;;
46613;SDS011;32338;50.430;6.806;2022-08-01T03:58:16;1.88;;;1.60;;
46613;SDS011;32338;50.430;6.806;2022-08-01T04:00:43;1.63;;;1.35;;
46613;SDS011;32338;50.430;6.806;2022-08-01T04:03:12;1.58;;;1.48;;
46613;SDS011;32338;50.430;6.806;2022-08-01T04:05:40;5.18;;;1.65;;
46613;SDS011;32338;50.430;6.806;2022-08-01T04:08:07;1.83;;;1.67;;
46613;SDS011;32338;50.430;6.806;2022-08-01T04:10:34;1.55;;;1.45;;
46613;SDS011;32338;50.430;6.806;2022-08-01T04:13:03;2.60;;;1.98;;
46613;SDS011;32338;50.430;6.806;2022-08-01T04:15:30;1.58;;;1.48;;
46613;SDS011;32338;50.430;6.806;2022-08-01T04:17:57;2.08;;;1.80;;
46613;SDS011;32338;50.430;6.806;2022-08-01T04:20:23;2.50;;;2.30;;
46613;SDS011;32338;50.430;6.806;2022-08-01T04:22:50;2.28;;;2.03;;
46613;SDS011;32338;50.430;6.806;2022-08-01T04:25:18;2.25;;;2.05;;
46613;SDS011;32338;50.430;6.806;2022-08-01T04:28:01;2.80;;;1.80;;
46613;SDS011;32338;50.430;6.806;2022-08-01T04:30:33;1.98;;;1.88;;
46613;SDS011;32338;50.430;6.806;2022-08-01T04:33:02;2.70;;;2.30;;
46613;SDS011;32338;50.430;6.806;2022-08-01T04:35:31;2.65;;;2.22;;
46613;SDS011;32338;50.430;6.806;2022-08-01T04:38:00;3.80;;;2.78;;
46613;SDS011;32338;50.430;6.806;2022-08-01T04:40:28;3.15;;;2.15;;
46613;SDS011;32338;50.430;6.806;2022-08-01T04:42:55;2.38;;;2.17;;
46613;SDS011;32338;50.430;6.806;2022-08-01T04:45:22;5.25;;;2.60;;
46613;SDS011;32338;50.430;6.806;2022-08-01T04:47:51;2.67;;;2.40;;
46613;SDS011;32338;50.430;6.806;2022-08-01T04:50:18;2.53;;;2.30;;
46613;SDS011;32338;50.430;6.806;2022-08-01T04:52:47;2.50;;;2.35;;
46613;SDS011;32338;50.430;6.806;2022-08-01T04:55:14;2.60;;;2.40;;
46613;SDS011;32338;50.430;6.806;2022-08-01T04:57:42;4.90;;;2.28;;
46613;SDS011;32338;50.430;6.806;2022-08-01T05:00:11;2.40;;;2.20;;
46613;SDS011;32338;50.430;6.806;2022-08-01T05:02:39;4.30;;;2.08;;
46613;SDS011;32338;50.430;6.806;2022-08-01T05:05:07;2.67;;;1.98;;
46613;SDS011;32338;50.430;6.806;2022-08-01T05:07:35;2.67;;;2.47;;
46613;SDS011;32338;50.430;6.806;2022-08-01T05:10:02;2.17;;;1.98;;
46613;SDS011;32338;50.430;6.806;2022-08-01T05:12:30;3.38;;;2.25;;
46613;SDS011;32338;50.430;6.806;2022-08-01T05:14:57;2.63;;;2.28;;
46613;SDS011;32338;50.430;6.806;2022-08-01T05:17:24;1.83;;;1.73;;
46613;SDS011;32338;50.430;6.806;2022-08-01T05:19:51;2.10;;;2.00;;
46613;SDS011;32338;50.430;6.806;2022-08-01T05:22:19;2.58;;;1.90;;
46613;SDS011;32338;50.430;6.806;2022-08-01T05:24:47;2.75;;;2.17;;
46613;SDS011;32338;50.430;6.806;2022-08-01T05:27:14;3.35;;;2.40;;
46613;SDS011;32338;50.430;6.806;2022-08-01T05:29:40;2.45;;;2.25;;
46613;SDS011;32338;50.430;6.806;2022-08-01T05:32:09;2.40;;;2.25;;
46613;SDS011;32338;50.430;6.806;2022-08-01T05:34:36;2.40;;;2.13;;
46613;SDS011;32338;50.430;6.806;2022-08-01T05:37:04;2.67;;;2.17;;
46613;SDS011;32338;50.430;6.806;2022-08-01T05:39:33;2.58;;;2.38;;
46613;SDS011;32338;50.430;6.806;2022-08-01T05:42:02;2.83;;;2.30;;
46613;SDS011;32338;50.430;6.806;2022-08-01T05:44:29;2.88;;;2.67;;
46613;SDS011;32338;50.430;6.806;2022-08-01T05:46:56;2.83;;;2.38;;
46613;SDS011;32338;50.430;6.806;2022-08-01T05:49:23;3.78;;;2.50;;
46613;SDS011;32338;50.430;6.806;2022-08-01T05:51:51;2.63;;;2.42;;
46613;SDS011;32338;50.430;6.806;2022-08-01T05:54:18;3.00;;;2.80;;
46613;SDS011;32338;50.430;6.806;2022-08-01T05:56:48;5.10;;;2.30;;
46613;SDS011;32338;50.430;6.806;2022-08-01T05:59:15;2.70;;;2.58;;
46613;SDS011;32338;50.430;6.806;2022-08-01T06:01:41;2.47;;;2.38;;
46613;SDS011;32338;50.430;6.806;2022-08-01T06:04:08;2.00;;;1.90;;
46613;SDS011;32338;50.430;6.806;2022-08-01T06:06:39;4.47;;;2.20;;
46613;SDS011;32338;50.430;6.806;2022-08-01T06:09:06;2.92;;;2.28;;
46613;SDS011;32338;50.430;6.806;2022-08-01T06:11:39;2.50;;;2.30;;
46613;SDS011;32338;50.430;6.806;2022-08-01T06:14:07;2.88;;;2.60;;
46613;SDS011;32338;50.430;6.806;2022-08-01T06:16:34;2.42;;;2.22;;
46613;SDS011;32338;50.430;6.806;2022-08-01T06:19:00;3.38;;;1.80;;
46613;SDS011;32338;50.430;6.806;2022-08-01T06:21:27;2.45;;;2.25;;
46613;SDS011;32338;50.430;6.806;2022-08-01T06:23:54;2.25;;;2.15;;
46613;SDS011;32338;50.430;6.806;2022-08-01T06:26:20;3.42;;;3.13;;
46613;SDS011;32338;50.430;6.806;2022-08-01T06:28:47;3.33;;;3.13;;
46613;SDS011;32338;50.430;6.806;2022-08-01T06:31:15;3.25;;;2.72;;
46613;SDS011;32338;50.430;6.806;2022-08-01T06:33:42;4.07;;;3.28;;
46613;SDS011;32338;50.430;6.806;2022-08-01T06:36:08;6.18;;;3.00;;
46613;SDS011;32338;50.430;6.806;2022-08-01T06:38:35;2.60;;;2.40;;
46613;SDS011;32338;50.430;6.806;2022-08-01T06:41:02;2.95;;;2.40;;
46613;SDS011;32338;50.430;6.806;2022-08-01T06:43:28;2.28;;;2.10;;
46613;SDS011;32338;50.430;6.806;2022-08-01T06:45:56;2.33;;;2.13;;
46613;SDS011;32338;50.430;6.806;2022-08-01T06:48:24;2.50;;;2.33;;
46613;SDS011;32338;50.430;6.806;2022-08-01T06:50:51;3.40;;;2.67;;
46613;SDS011;32338;50.430;6.806;2022-08-01T06:53:32;3.42;;;2.65;;
46613;SDS011;32338;50.430;6.806;2022-08-01T06:55:59;2.47;;;2.08;;
46613;SDS011;32338;50.430;6.806;2022-08-01T06:58:26;3.20;;;2.40;;
46613;SDS011;32338;50.430;6.806;2022-08-01T07:00:52;3.25;;;2.20;;
46613;SDS011;32338;50.430;6.806;2022-08-01T07:03:19;2.58;;;2.38;;
46613;SDS011;32338;50.430;6.806;2022-08-01T07:05:47;2.40;;;2.20;;
46613;SDS011;32338;50.430;6.806;2022-08-01T07:08:13;5.07;;;2.30;;
46613;SDS011;32338;50.430;6.806;2022-08-01T07:10:40;4.13;;;2.33;;
46613;SDS011;32338;50.430;6.806;2022-08-01T07:13:08;2.30;;;2.10;;
46613;SDS011;32338;50.430;6.806;2022-08-01T07:15:35;3.30;;;2.28;;
46613;SDS011;32338;50.430;6.806;2022-08-01T07:18:01;5.72;;;2.30;;
46613;SDS011;32338;50.430;6.806;2022-08-01T07:20:29;2.40;;;2.20;;
46613;SDS011;32338;50.430;6.806;2022-08-01T07:22:57;2.20;;;2.10;;
46613;SDS011;32338;50.430;6.806;2022-08-01T07:25:23;2.75;;;2.33;;
46613;SDS011;32338;50.430;6.806;2022-08-01T07:27:50;2.85;;;2.20;;
46613;SDS011;32338;50.430;6.806;2022-08-01T07:30:17;4.10;;;1.85;;
46613;SDS011;32338;50.430;6.806;2022-08-01T07:32:44;3.17;;;2.35;;
46613;SDS011;32338;50.430;6.806;2022-08-01T07:35:10;2.90;;;1.92;;
46613;SDS011;32338;50.430;6.806;2022-08-01T07:37:37;1.83;;;1.73;;
46613;SDS011;32338;50.430;6.806;2022-08-01T07:40:05;3.63;;;2.10;;
46613;SDS011;32338;50.430;6.806;2022-08-01T07:42:33;2.30;;;2.10;;
46613;SDS011;32338;50.430;6.806;2022-08-01T07:44:59;2.08;;;1.65;;
46613;SDS011;32338;50.430;6.806;2022-08-01T07:47:26;2.40;;;1.90;;
46613;SDS011;32338;50.430;6.806;2022-08-01T07:49:58;2.25;;;2.03;;
46613;SDS011;32338;50.430;6.806;2022-08-01T07:52:25;2.33;;;2.13;;
46613;SDS011;32338;50.430;6.806;2022-08-01T07:54:52;3.70;;;1.70;;
46613;SDS011;32338;50.430;6.806;2022-08-01T07:57:21;2.35;;;1.95;;
46613;SDS011;32338;50.430;6.806;2022-08-01T07:59:47;4.25;;;2.25;;
46613;SDS011;32338;50.430;6.806;2022-08-01T08:02:14;3.25;;;2.42;;
46613;SDS011;32338;50.430;6.806;2022-08-01T08:04:41;3.92;;;2.35;;
46613;SDS011;32338;50.430;6.806;2022-08-01T08:07:07;2.35;;;2.00;;
46613;SDS011;32338;50.430;6.806;2022-08-01T08:09:34;2.85;;;2.00;;
46613;SDS011;32338;50.430;6.806;2022-08-01T08:12:01;2.97;;;2.75;;
46613;SDS011;32338;50.430;6.806;2022-08-01T08:14:29;2.20;;;1.90;;
46613;SDS011;32338;50.430;6.806;2022-08-01T08:16:55;3.78;;;2.20;;
46613;SDS011;32338;50.430;6.806;2022-08-01T08:19:22;3.65;;;2.70;;
46613;SDS011;32338;50.430;6.806;2022-08-01T08:21:48;6.70;;;2.80;;
46613;SDS011;32338;50.430;6.806;2022-08-01T08:24:15;3.63;;;2.33;;
46613;SDS011;32338;50.430;6.806;2022-08-01T08:26:49;2.50;;;2.30;;
46613;SDS011;32338;50.430;6.806;2022-08-01T08:29:18;3.22;;;2.90;;
46613;SDS011;32338;50.430;6.806;2022-08-01T08:31:53;2.30;;;2.10;;
46613;SDS011;32338;50.430;6.806;2022-08-01T08:34:23;5.95;;;3.20;;
46613;SDS011;32338;50.430;6.806;2022-08-01T08:36:49;3.22;;;2.88;;
46613;SDS011;32338;50.430;6.806;2022-08-01T08:39:17;2.78;;;2.58;;
46613;SDS011;32338;50.430;6.806;2022-08-01T08:41:43;4.22;;;3.03;;
46613;SDS011;32338;50.430;6.806;2022-08-01T08:44:10;3.45;;;2.75;;
46613;SDS011;32338;50.430;6.806;2022-08-01T08:46:40;3.20;;;2.70;;
46613;SDS011;32338;50.430;6.806;2022-08-01T08:49:10;2.85;;;2.65;;
46613;SDS011;32338;50.430;6.806;2022-08-01T08:51:39;4.93;;;2.72;;
46613;SDS011;32338;50.430;6.806;2022-08-01T08:54:07;2.60;;;2.40;;
46613;SDS011;32338;50.430;6.806;2022-08-01T08:56:37;2.67;;;2.00;;
46613;SDS011;32338;50.430;6.806;2022-08-01T08:59:04;2.55;;;2.28;;
46613;SDS011;32338;50.430;6.806;2022-08-01T09:01:31;2.10;;;2.00;;
46613;SDS011;32338;50.430;6.806;2022-08-01T09:04:00;1.98;;;1.88;;
46613;SDS011;32338;50.430;6.806;2022-08-01T09:06:28;3.40;;;2.40;;
46613;SDS011;32338;50.430;6.806;2022-08-01T09:08:55;2.30;;;2.20;;
46613;SDS011;32338;50.430;6.806;2022-08-01T09:11:21;2.70;;;2.55;;
46613;SDS011;32338;50.430;6.806;2022-08-01T09:14:00;3.35;;;2.95;;
46613;SDS011;32338;50.430;6.806;2022-08-01T09:16:28;2.97;;;2.78;;
46613;SDS011;32338;50.430;6.806;2022-08-01T09:19:04;3.22;;;3.03;;
46613;SDS011;32338;50.430;6.806;2022-08-01T09:21:35;4.05;;;3.17;;
46613;SDS011;32338;50.430;6.806;2022-08-01T09:24:02;2.97;;;2.78;;
46613;SDS011;32338;50.430;6.806;2022-08-01T09:26:31;4.78;;;2.92;;
46613;SDS011;32338;50.430;6.806;2022-08-01T09:28:59;2.88;;;2.67;;
46613;SDS011;32338;50.430;6.806;2022-08-01T09:31:28;2.80;;;2.70;;
46613;SDS011;32338;50.430;6.806;2022-08-01T09:33:56;3.50;;;2.40;;
46613;SDS011;32338;50.430;6.806;2022-08-01T09:36:25;3.15;;;2.50;;
46613;SDS011;32338;50.430;6.806;2022-08-01T09:38:54;2.45;;;2.25;;
46613;SDS011;32338;50.430;6.806;2022-08-01T09:41:28;2.28;;;2.08;;
46613;SDS011;32338;50.430;6.806;2022-08-01T09:43:56;2.20;;;2.00;;
46613;SDS011;32338;50.430;6.806;2022-08-01T09:46:23;2.55;;;2.08;;
46613;SDS011;32338;50.430;6.806;2022-08-01T09:48:57;3.28;;;2.33;;
46613;SDS011;32338;50.430;6.806;2022-08-01T09:51:29;2.72;;;2.25;;
46613;SDS011;32338;50.430;6.806;2022-08-01T09:53:59;3.28;;;2.20;;
46613;SDS011;32338;50.430;6.806;2022-08-01T09:56:26;2.28;;;2.08;;
46613;SDS011;32338;50.430;6.806;2022-08-01T09:59:01;2.67;;;2.47;;
46613;SDS011;32338;50.430;6.806;2022-08-01T10:01:28;1.80;;;1.70;;
46613;SDS011;32338;50.430;6.806;2022-08-01T10:04:08;1.48;;;1.38;;
46613;SDS011;32338;50.430;6.806;2022-08-01T10:06:36;2.30;;;2.10;;
46613;SDS011;32338;50.430;6.806;2022-08-01T10:09:05;1.92;;;1.83;;
46613;SDS011;32338;50.430;6.806;2022-08-01T10:11:31;2.53;;;1.80;;
46613;SDS011;32338;50.430;6.806;2022-08-01T10:14:01;2.00;;;1.90;;
46613;SDS011;32338;50.430;6.806;2022-08-01T10:16:28;2.22;;;2.00;;
46613;SDS011;32338;50.430;6.806;2022-08-01T10:18:58;2.80;;;2.60;;
46613;SDS011;32338;50.430;6.806;2022-08-01T10:21:25;2.10;;;2.00;;
46613;SDS011;32338;50.430;6.806;2022-08-01T10:23:54;2.30;;;2.13;;
46613;SDS011;32338;50.430;6.806;2022-08-01T10:26:28;2.50;;;1.98;;
46613;SDS011;32338;50.430;6.806;2022-08-01T10:29:03;2.10;;;2.00;;
46613;SDS011;32338;50.430;6.806;2022-08-01T10:31:34;1.90;;;1.80;;
46613;SDS011;32338;50.430;6.806;2022-08-01T10:34:02;1.80;;;1.70;;
46613;SDS011;32338;50.430;6.806;2022-08-01T10:36:34;1.70;;;1.60;;
46613;SDS011;32338;50.430;6.806;2022-08-01T10:39:05;1.90;;;1.80;;
46613;SDS011;32338;50.430;6.806;2022-08-01T10:41:35;2.10;;;2.00;;
46613;SDS011;32338;50.430;6.806;2022-08-01T10:44:09;1.85;;;1.60;;
46613;SDS011;32338;50.430;6.806;2022-08-01T10:46:42;2.00;;;1.90;;
46613;SDS011;32338;50.430;6.806;2022-08-01T10:49:25;1.55;;;1.45;;
46613;SDS011;32338;50.430;6.806;2022-08-01T10:52:02;1.65;;;1.40;;
46613;SDS011;32338;50.430;6.806;2022-08-01T10:54:39;1.70;;;1.60;;
46613;SDS011;32338;50.430;6.806;2022-08-01T10:57:08;1.50;;;1.40;;
46613;SDS011;32338;50.430;6.806;2022-08-01T10:59:35;1.70;;;1.60;;
46613;SDS011;32338;50.430;6.806;2022-08-01T11:02:19;2.67;;;1.38;;
46613;SDS011;32338;50.430;6.806;2022-08-01T11:04:54;1.98;;;1.42;;
46613;SDS011;32338;50.430;6.806;2022-08-01T11:07:24;1.00;;;1.00;;
46613;SDS011;32338;50.430;6.806;2022-08-01T11:10:08;1.50;;;1.40;;
46613;SDS011;32338;50.430;6.806;2022-08-01T11:12:46;1.55;;;1.25;;
46613;SDS011;32338;50.430;6.806;2022-08-01T11:15:20;1.40;;;1.30;;
46613;SDS011;32338;50.430;6.806;2022-08-01T11:17:56;1.13;;;1.10;;
46613;SDS011;32338;50.430;6.806;2022-08-01T11:20:25;1.20;;;1.10;;
46613;SDS011;32338;50.430;6.806;2022-08-01T11:26:12;1.58;;;1.48;;
46613;SDS011;32338;50.430;6.806;2022-08-01T11:28:41;1.23;;;1.23;;
46613;SDS011;32338;50.430;6.806;2022-08-01T11:31:29;1.38;;;1.20;;
46613;SDS011;32338;50.430;6.806;2022-08-01T11:33:56;1.40;;;1.30;;
46613;SDS011;32338;50.430;6.806;2022-08-01T11:36:24;1.40;;;1.30;;
46613;SDS011;32338;50.430;6.806;2022-08-01T11:41:38;1.02;;;1.02;;
46613;SDS011;32338;50.430;6.806;2022-08-01T11:44:07;0.93;;;0.93;;
46613;SDS011;32338;50.430;6.806;2022-08-01T11:46:45;1.27;;;1.17;;
46613;SDS011;32338;50.430;6.806;2022-08-01T11:49:22;1.02;;;0.90;;
46613;SDS011;32338;50.430;6.806;2022-08-01T11:51:56;1.25;;;0.95;;
46613;SDS011;32338;50.430;6.806;2022-08-01T11:54:27;1.00;;;1.00;;
46613;SDS011;32338;50.430;6.806;2022-08-01T11:56:57;1.00;;;1.00;;
46613;SDS011;32338;50.430;6.806;2022-08-01T11:59:26;1.15;;;1.15;;
46613;SDS011;32338;50.430;6.806;2022-08-01T12:01:53;1.40;;;1.30;;
46613;SDS011;32338;50.430;6.806;2022-08-01T12:04:20;2.25;;;1.30;;
46613;SDS011;32338;50.430;6.806;2022-08-01T12:06:47;1.48;;;1.35;;
46613;SDS011;32338;50.430;6.806;2022-08-01T12:09:14;0.95;;;0.95;;
46613;SDS011;32338;50.430;6.806;2022-08-01T12:11:41;0.82;;;0.82;;
46613;SDS011;32338;50.430;6.806;2022-08-01T12:14:08;1.00;;;1.00;;
46613;SDS011;32338;50.430;6.806;2022-08-01T12:16:37;1.10;;;1.00;;
46613;SDS011;32338;50.430;6.806;2022-08-01T12:19:04;1.15;;;1.10;;
46613;SDS011;32338;50.430;6.806;2022-08-01T12:21:31;1.00;;;1.00;;
46613;SDS011;32338;50.430;6.806;2022-08-01T12:24:00;1.10;;;1.10;;
46613;SDS011;32338;50.430;6.806;2022-08-01T12:26:38;1.00;;;1.00;;
46613;SDS011;32338;50.430;6.806;2022-08-01T12:29:05;1.23;;;1.20;;
46613;SDS011;32338;50.430;6.806;2022-08-01T12:31:32;1.17;;;1.08;;
46613;SDS011;32338;50.430;6.806;2022-08-01T12:36:55;0.95;;;0.95;;
46613;SDS011;32338;50.430;6.806;2022-08-01T12:39:28;1.13;;;1.10;;
46613;SDS011;32338;50.430;6.806;2022-08-01T12:41:56;2.17;;;0.98;;
46613;SDS011;32338;50.430;6.806;2022-08-01T12:44:23;1.00;;;1.00;;
46613;SDS011;32338;50.430;6.806;2022-08-01T12:46:51;1.10;;;1.00;;
46613;SDS011;32338;50.430;6.806;2022-08-01T12:49:18;0.90;;;0.90;;
46613;SDS011;32338;50.430;6.806;2022-08-01T12:51:47;1.35;;;1.25;;
46613;SDS011;32338;50.430;6.806;2022-08-01T12:54:14;1.33;;;1.23;;
46613;SDS011;32338;50.430;6.806;2022-08-01T12:56:40;1.90;;;1.50;;
46613;SDS011;32338;50.430;6.806;2022-08-01T13:01:50;2.00;;;1.13;;
46613;SDS011;32338;50.430;6.806;2022-08-01T13:04:18;1.20;;;1.10;;
46613;SDS011;32338;50.430;6.806;2022-08-01T13:06:46;1.02;;;1.00;;
46613;SDS011;32338;50.430;6.806;2022-08-01T13:09:14;0.73;;;0.73;;
46613;SDS011;32338;50.430;6.806;2022-08-01T13:11:41;1.02;;;0.98;;
46613;SDS011;32338;50.430;6.806;2022-08-01T13:14:08;1.10;;;1.00;;
46613;SDS011;32338;50.430;6.806;2022-08-01T13:16:45;1.42;;;1.20;;
46613;SDS011;32338;50.430;6.806;2022-08-01T13:19:12;1.00;;;1.00;;
46613;SDS011;32338;50.430;6.806;2022-08-01T13:21:39;0.80;;;0.80;;
46613;SDS011;32338;50.430;6.806;2022-08-01T13:24:22;0.90;;;0.90;;
46613;SDS011;32338;50.430;6.806;2022-08-01T13:26:51;2.72;;;0.90;;
46613;SDS011;32338;50.430;6.806;2022-08-01T13:29:21;1.13;;;1.05;;
46613;SDS011;32338;50.430;6.806;2022-08-01T13:31:54;1.30;;;1.20;;
46613;SDS011;32338;50.430;6.806;2022-08-01T13:34:28;1.00;;;1.00;;
46613;SDS011;32338;50.430;6.806;2022-08-01T13:39:26;1.15;;;1.00;;
46613;SDS011;32338;50.430;6.806;2022-08-01T13:42:10;1.20;;;1.10;;
46613;SDS011;32338;50.430;6.806;2022-08-01T13:44:37;2.65;;;0.90;;
46613;SDS011;32338;50.430;6.806;2022-08-01T13:47:04;2.38;;;1.00;;
46613;SDS011;32338;50.430;6.806;2022-08-01T13:49:31;1.27;;;0.90;;
46613;SDS011;32338;50.430;6.806;2022-08-01T13:52:00;2.38;;;0.90;;
46613;SDS011;32338;50.430;6.806;2022-08-01T13:54:27;1.00;;;0.90;;
46613;SDS011;32338;50.430;6.806;2022-08-01T13:56:53;0.75;;;0.75;;
46613;SDS011;32338;50.430;6.806;2022-08-01T13:59:20;0.82;;;0.82;;
46613;SDS011;32338;50.430;6.806;2022-08-01T14:01:47;0.80;;;0.80;;
46613;SDS011;32338;50.430;6.806;2022-08-01T14:04:14;1.67;;;0.90;;
46613;SDS011;32338;50.430;6.806;2022-08-01T14:06:40;1.00;;;1.00;;
46613;SDS011;32338;50.430;6.806;2022-08-01T14:09:09;1.08;;;0.98;;
46613;SDS011;32338;50.430;6.806;2022-08-01T14:11:35;1.27;;;1.17;;
46613;SDS011;32338;50.430;6.806;2022-08-01T14:14:02;1.60;;;1.00;;
46613;SDS011;32338;50.430;6.806;2022-08-01T14:16:29;1.25;;;1.15;;
46613;SDS011;32338;50.430;6.806;2022-08-01T14:18:56;2.47;;;1.70;;
46613;SDS011;32338;50.430;6.806;2022-08-01T14:21:23;1.30;;;1.20;;
46613;SDS011;32338;50.430;6.806;2022-08-01T14:23:49;1.90;;;1.77;;
46613;SDS011;32338;50.430;6.806;2022-08-01T14:26:18;3.05;;;1.40;;
46613;SDS011;32338;50.430;6.806;2022-08-01T14:28:49;3.30;;;2.00;;
46613;SDS011;32338;50.430;6.806;2022-08-01T14:31:16;1.65;;;1.55;;
46613;SDS011;32338;50.430;6.806;2022-08-01T14:33:43;1.60;;;1.50;;
46613;SDS011;32338;50.430;6.806;2022-08-01T14:36:10;1.88;;;1.70;;
46613;SDS011;32338;50.430;6.806;2022-08-01T14:38:36;1.50;;;1.40;;
46613;SDS011;32338;50.430;6.806;2022-08-01T14:41:03;1.85;;;1.75;;
46613;SDS011;32338;50.430;6.806;2022-08-01T14:43:31;1.92;;;1.83;;
46613;SDS011;32338;50.430;6.806;2022-08-01T14:45:58;1.63;;;1.52;;
46613;SDS011;32338;50.430;6.806;2022-08-01T14:48:25;1.60;;;1.50;;
46613;SDS011;32338;50.430;6.806;2022-08-01T14:50:51;1.75;;;1.65;;
46613;SDS011;32338;50.430;6.806;2022-08-01T14:53:18;1.65;;;1.50;;
46613;SDS011;32338;50.430;6.806;2022-08-01T14:55:46;1.58;;;1.48;;
46613;SDS011;32338;50.430;6.806;2022-08-01T14:58:13;2.60;;;2.38;;
46613;SDS011;32338;50.430;6.806;2022-08-01T15:00:41;2.72;;;2.53;;
46613;SDS011;32338;50.430;6.806;2022-08-01T15:03:08;4.10;;;3.05;;
46613;SDS011;32338;50.430;6.806;2022-08-01T15:05:34;2.92;;;2.72;;
46613;SDS011;32338;50.430;6.806;2022-08-01T15:08:01;2.72;;;2.42;;
46613;SDS011;32338;50.430;6.806;2022-08-01T15:10:28;2.70;;;2.13;;
46613;SDS011;32338;50.430;6.806;2022-08-01T15:12:57;2.33;;;2.13;;